Latest Coastal Weather Observations for Low Head

IDT60701

Issued at 7:12 am EDT Friday 20 October 2017 (issued every 10 minutes, with the page automatically refreshed every 10 minutes)

About coastal observations | Map of coastal stations | Coastal observations for TAS | Marine services | Other Formats
Station Details ID: 091293 Name: LOW HEAD Lat: -41.05 Lon: 146.79 Height: 3.0 m
Data from the previous 72 hours. | See also: Recent months at Low Head
Date/Time
EDT
Temp
°C
Wind Pressure Rain since
9am
mm
Weather Cloud Vis
km
Sea
Height
m
Swell
Dir  Spd
kts
Gust
kts
hPa Trend Height
m
Period
s
Dir
20/07:00am 11.3 WSW 18 23 1020.1 - 5.0 - - - - - - -
20/06:30am 11.3 W 21 26 1019.3 - 5.0 - - - - - - -
20/06:00am 11.4 W 21 26 1018.8 - 5.0 - - - - - - -
20/05:30am 11.5 W 22 29 1018.5 - 5.0 - - - - - - -
20/05:00am 11.5 W 23 27 1018.2 - 5.0 - - - - - - -
20/04:30am 11.7 W 22 25 1017.9 - 5.0 - - - - - - -
20/04:00am 11.8 W 23 26 1017.8 - 5.0 - - - - - - -
20/03:30am 12.0 W 23 27 1017.6 - 5.0 - - - - - - -
20/03:00am 12.3 W 22 25 1017.4 - 5.0 - - - - - - -
20/02:30am 12.3 W 23 28 1017.3 - 5.0 - - - - - - -
20/02:13am 12.3 WNW 23 34 1017.6 - 5.0 - - - - - - -
20/02:00am 12.6 WNW 24 28 1017.7 - 5.0 - - - - - - -
20/01:30am 12.6 WNW 19 23 1017.9 - 5.0 - - - - - - -
20/01:00am 12.4 WNW 18 21 1018.1 - 5.0 - - - - - - -
20/12:30am 12.3 WNW 18 22 1017.9 - 5.0 - - - - - - -
20/12:00am 12.4 WNW 21 26 1017.9 - 5.0 - - - - - - -
 
Date/Time
EDT
Temp
°C
Wind Pressure Rain since
9am
mm
Weather Cloud Vis
km
Sea
Height
m
Swell
Dir  Spd
kts
Gust
kts
hPa Trend Height
m
Period
s
Dir
19/11:30pm 12.5 WNW 21 24 1018.0 - 5.0 - - - - - - -
19/11:00pm 12.6 WNW 19 23 1018.0 - 5.0 - - - - - - -
19/10:30pm 13.0 W 22 25 1017.8 - 5.0 - - - - - - -
19/10:00pm 13.1 W 22 25 1017.4 - 5.0 - - - - - - -
19/09:30pm 13.3 W 21 25 1017.0 - 5.0 - - - - - - -
19/09:00pm 13.7 W 22 28 1015.9 - 5.0 - - - - - - -
19/08:30pm 13.9 W 25 29 1014.8 - 5.0 - - - - - - -
19/08:00pm 14.0 WNW 24 28 1014.1 - 5.0 - - - - - - -
19/07:30pm 14.2 WNW 24 29 1013.4 - 5.0 - - - - - - -
19/07:00pm 14.4 WNW 23 26 1012.8 - 5.0 - - - - - - -
19/06:30pm 14.3 WNW 20 24 1012.4 - 5.0 - - - - - - -
19/06:00pm 14.6 NW 18 22 1012.2 - 5.0 - - - - - - -
19/05:30pm 14.6 NW 19 23 1012.4 - 5.0 - - - - - - -
19/05:00pm 14.9 NW 18 22 1012.3 - 5.0 - - - - - - -
19/04:30pm 14.8 NW 19 23 1012.3 - 5.0 - - - - - - -
19/04:00pm 14.8 NNW 19 22 1012.3 - 4.8 - - - - - - -
19/03:30pm 14.7 NNW 17 19 1012.4 - 4.8 - - - - - - -
19/03:00pm 14.8 NNW 13 15 1012.4 - 4.6 - - - - - - -
19/02:30pm 14.8 NNW 9 11 1012.6 - 4.6 - - - - - - -
19/02:00pm 14.5 NNW 7 8 1012.9 - 4.6 - - - - - - -
19/01:30pm 14.4 NW 9 10 1013.1 - 4.6 - - - - - - -
19/01:00pm 14.4 NW 10 12 1013.3 - 4.6 - - - - - - -
19/12:30pm 14.4 NNW 11 12 1013.5 - 4.6 - - - - - - -
19/12:00pm 14.5 NNW 9 11 1013.5 - 4.6 Rain - - - - - -
19/11:30am 14.4 NNE 7 8 1012.7 - 4.4 - - - - - - -
19/11:00am 14.4 N 9 11 1013.3 - 4.2 - - - - - - -
19/10:30am 14.5 NNE 10 13 1012.8 - 3.8 - - - - - - -
19/10:00am 14.7 NE 12 13 1012.8 - 3.0 - - - - - - -
19/09:30am 14.8 NE 12 14 1013.1 - 2.4 - - - - - - -
19/09:00am 14.7 NE 13 14 1013.4 - 0.8 Rain - - - - - -
19/08:30am 15.1 NE 13 15 1013.5 - 0.2 - - - - - - -
19/08:00am 15.5 NE 11 13 1013.4 - 0.0 - - - - - - -
19/07:30am 15.2 NE 1 8 1013.3 - 0.0 - - - - - - -
19/07:00am 14.8 SSE 3 7 1013.0 - 0.0 - - - - - - -
19/06:30am 15.0 ESE 6 7 1012.6 - 0.0 - - - - - - -
19/06:00am 15.1 ESE 6 8 1013.0 - 0.0 - - - - - - -
19/05:30am 15.5 E 7 9 1013.4 - 0.0 - - - - - - -
19/05:00am 15.4 ESE 5 7 1013.8 - 0.0 - - - - - - -
19/04:30am 15.4 SE 6 9 1014.0 - 0.0 - - - - - - -
19/04:00am 15.1 ESE 6 8 1014.1 - 0.0 - - - - - - -
19/03:30am 15.3 ESE 7 9 1014.5 - 0.0 - - - - - - -
19/03:00am 15.4 SE 7 8 1015.0 - 0.0 - - - - - - -
19/02:30am 15.8 ESE 7 9 1015.5 - 0.0 - - - - - - -
19/02:00am 16.1 ESE 7 9 1015.9 - 0.0 - - - - - - -
19/01:30am 16.0 ESE 8 10 1016.2 - 0.0 - - - - - - -
19/01:00am 15.8 ESE 8 9 1016.9 - 0.0 - - - - - - -
19/12:30am 15.2 ESE 5 7 1017.2 - 0.0 - - - - - - -
19/12:00am 16.2 ESE 7 8 1017.4 - 0.0 - - - - - - -
 
Date/Time
EDT
Temp
°C
Wind Pressure Rain since
9am
mm
Weather Cloud Vis
km
Sea
Height
m
Swell
Dir  Spd
kts
Gust
kts
hPa Trend Height
m
Period
s
Dir
18/11:30pm 16.0 ESE 7 9 1017.7 - 0.0 - - - - - - -
18/11:00pm 15.0 ESE 6 8 1018.0 - 0.0 - - - - - - -
18/10:30pm 14.8 ESE 7 10 1018.4 - 0.0 - - - - - - -
18/10:00pm 15.0 SE 7 9 1018.8 - 0.0 - - - - - - -
18/09:30pm 15.8 ESE 7 8 1019.1 - 0.0 - - - - - - -
18/09:00pm 15.8 ESE 6 7 1019.2 - 0.0 - - - - - - -
18/08:30pm 16.5 E 8 8 1018.8 - 0.0 - - - - - - -
18/08:00pm 16.9 ENE 7 8 1018.8 - 0.0 - - - - - - -
18/07:30pm 17.0 ENE 6 7 1018.7 - 0.0 - - - - - - -
18/07:00pm 17.2 ENE 7 8 1018.4 - 0.0 - - - - - - -
18/06:30pm 17.1 ENE 8 9 1018.2 - 0.0 - - - - - - -
18/06:00pm 16.7 ENE 9 10 1018.3 - 0.0 - - - - - - -
18/05:30pm 16.7 NE 7 8 1018.6 - 0.0 - - - - - - -
18/05:00pm 16.6 NE 9 11 1018.7 - 0.0 - - - - - - -
18/04:30pm 16.7 NE 8 9 1018.9 - 0.0 - - - - - - -
18/04:00pm 16.8 NE 9 10 1019.1 - 0.0 - - - - - - -
18/03:30pm 16.9 NE 9 9 1019.1 - 0.0 - - - - - - -
18/03:00pm 17.3 NE 6 7 1019.5 - 0.0 - - - - - - -
18/02:30pm 17.6 NNE 5 6 1020.1 - 0.0 - - - - - - -
18/02:00pm 17.2 NE 5 6 1020.6 - 0.0 - - - - - - -
18/01:30pm 17.1 NNE 7 8 1021.0 - 0.0 - - - - - - -
18/01:00pm 17.0 NNE 9 11 1021.1 - 0.0 - - - - - - -
18/12:30pm 16.5 N 9 13 1021.4 - 0.0 - - - - - - -
18/12:00pm 18.8 N 3 6 1021.5 - 0.0 - - - - - - -
18/11:30am 18.1 NNE 5 6 1021.7 - 0.0 - - - - - - -
18/11:00am 17.3 NE 7 7 1022.2 - 0.0 - - - - - - -
18/10:30am 16.9 NE 5 6 1022.6 - 0.0 - - - - - - -
18/10:00am 17.7 ENE 4 6 1022.7 - 0.0 - - - - - - -
18/09:30am 16.9 E 3 6 1022.8 - 0.0 - - - - - - -
18/09:00am 14.6 S 5 6 1023.1 - 0.0 - - - - - - -
18/08:30am 12.8 S 7 7 1023.1 - 0.0 - - - - - - -
18/08:00am 12.2 S 10 11 1022.5 - 0.0 - - - - - - -
18/07:30am 11.6 S 10 11 1022.4 - 0.0 - - - - - - -
18/07:00am 11.0 S 9 11 1022.1 - 0.0 - - - - - - -
18/06:30am 10.3 SSE 9 11 1021.8 - 0.0 - - - - - - -
18/06:00am 10.7 S 11 12 1021.5 - 0.0 - - - - - - -
18/05:30am 10.8 SSE 10 12 1021.3 - 0.0 - - - - - - -
18/05:00am 10.9 SSE 9 11 1021.5 - 0.0 - - - - - - -
18/04:30am 10.9 SSE 8 9 1021.6 - 0.0 - - - - - - -
18/04:00am 11.2 SSE 9 11 1022.0 - 0.0 - - - - - - -
18/03:30am 10.8 SSE 8 9 1021.9 - 0.0 - - - - - - -
18/03:00am 10.6 SSE 8 8 1022.0 - 0.0 - - - - - - -
18/02:30am 11.6 SSE 9 10 1022.0 - 0.0 - - - - - - -
18/02:00am 11.3 SSE 8 9 1022.3 - 0.0 - - - - - - -
18/01:30am 11.8 SSE 8 9 1022.8 - 0.0 - - - - - - -
18/01:00am 11.7 SSE 8 9 1023.1 - 0.0 - - - - - - -
18/12:30am 12.0 SSE 9 10 1023.3 - 0.0 - - - - - - -
18/12:00am 12.2 SSE 8 9 1023.5 - 0.0 - - - - - - -
 
Date/Time
EDT
Temp
°C
Wind Pressure Rain since
9am
mm
Weather Cloud Vis
km
Sea
Height
m
Swell
Dir  Spd
kts
Gust
kts
hPa Trend Height
m
Period
s
Dir
17/11:30pm 12.8 SSE 8 9 1023.5 - 0.0 - - - - - - -
17/11:00pm 13.3 SSE 9 10 1023.7 - 0.0 - - - - - - -
17/10:30pm 13.7 SSE 6 7 1023.7 - 0.0 - - - - - - -
17/10:00pm 14.3 E 4 5 1023.9 - 0.0 - - - - - - -
17/09:30pm 14.5 CALM 0 5 1023.9 - 0.0 - - - - - - -
17/09:00pm 15.5 CALM 0 0 1023.7 - 0.0 - - - - - - -
17/08:30pm 15.6 CALM 0 0 1023.3 - 0.0 - - - - - - -
17/08:00pm 15.3 CALM 0 0 1023.1 - 0.0 - - - - - - -
17/07:30pm 15.9 CALM 0 0 1022.9 - 0.0 - - - - - - -
17/07:00pm 16.6 ENE 1 3 1022.6 - 0.0 - - - - - - -
17/06:30pm 16.6 CALM 0 0 1022.5 - 0.0 - - - - - - -
17/06:00pm 17.2 CALM 0 0 1022.6 - 0.0 - - - - - - -
17/05:30pm 16.5 NNW 3 4 1022.7 - 0.0 - - - - - - -
17/05:00pm 17.1 NW 4 4 1022.8 - 0.0 - - - - - - -
17/04:30pm 17.0 NW 4 5 1022.9 - 0.0 - - - - - - -
17/04:00pm 18.1 NW 5 6 1023.1 - 0.0 - - - - - - -
17/03:30pm 17.4 NW 6 7 1023.2 - 0.0 - - - - - - -
17/03:00pm 16.7 N 5 5 1023.1 - 0.0 - - - - - - -
17/02:30pm 16.7 NNE 4 5 1023.3 - 0.0 - - - - - - -
17/02:00pm 17.1 NE 2 4 1023.4 - 0.0 - - - - - - -
17/01:30pm 16.8 N 3 5 1023.7 - 0.0 - - - - - - -
17/01:00pm 16.0 NNE 8 9 1023.6 - 0.0 - - - - - - -
17/12:30pm 15.1 NNE 9 10 1024.0 - 0.0 - - - - - - -
17/12:00pm 15.8 NNE 7 8 1024.1 - 0.0 - - - - - - -
17/11:30am 15.4 NNE 6 7 1024.4 - 0.0 - - - - - - -
17/11:00am 15.7 N 5 5 1024.4 - 0.0 - - - - - - -
17/10:30am 16.5 N 4 5 1024.5 - 0.0 - - - - - - -
17/10:00am 15.2 S 7 8 1024.4 - 0.0 - - - - - - -
17/09:30am 14.6 S 7 9 1024.6 - 0.0 - - - - - - -
17/09:00am 14.1 S 7 8 1024.6 - 0.0 - - - - - - -
17/08:30am 12.9 S 7 8 1024.6 - 0.0 - - - - - - -
17/08:00am 12.4 SSE 6 8 1024.3 - 0.0 - - - - - - -
17/07:30am 12.0 S 8 9 1024.3 - 0.0 - - - - - - -

Other Formats:

Comma delimited format used in spreadsheet applications
http://www.bom.gov.au/fwo/IDT60701/IDT60701.95964.axf

JavaScript Object Notation format (JSON) in row-major order
http://www.bom.gov.au/fwo/IDT60701/IDT60701.95964.json